SWA2016 KABQ-KDEN
Flight info
| Callsign | SWA2016 |
|---|---|
| Flight time | 0h 59m |
| Altitude | 37000 |
| Route | JEMEZ3 JEMEZ GNDLA TBARR4 |
| Aircraft | B738/M-SDE2E3GIJ4RWZ/LB1D1 |
Departure
| Time | 2026-05-04 14:13 |
|---|---|
| Airport | Albuquerque International Sunport (KABQ) |
Arrival
| Time | 2026-05-04 15:13 |
|---|---|
| Airport | Denver International Airport (KDEN) |
| Time | Latitude | Longitude | Altitude | Speed | Heading |
|---|---|---|---|---|---|
| 2026-05-04 13:44 | 35.04789 | -106.61475 | 5323 ft | 0 kts | 180° |
| 2026-05-04 14:04 | 35.04791 | -106.61475 | 5323 ft | 0 kts | 181° |
| 2026-05-04 14:04 | 35.04800 | -106.61479 | 5323 ft | 2 kts | 150° |
| 2026-05-04 14:04 | 35.04812 | -106.61486 | 5323 ft | 2 kts | 180° |
| 2026-05-04 14:05 | 35.04837 | -106.61487 | 5323 ft | 2 kts | 149° |
| 2026-05-04 14:05 | 35.04847 | -106.61500 | 5323 ft | 2 kts | 109° |
| 2026-05-04 14:05 | 35.04848 | -106.61509 | 5323 ft | 0 kts | 85° |
| 2026-05-04 14:06 | 35.04848 | -106.61516 | 5323 ft | 0 kts | 90° |
| 2026-05-04 14:07 | 35.04848 | -106.61498 | 5323 ft | 8 kts | 90° |
| 2026-05-04 14:07 | 35.04843 | -106.61383 | 5323 ft | 14 kts | 97° |
| 2026-05-04 14:08 | 35.04776 | -106.61308 | 5323 ft | 15 kts | 179° |
| 2026-05-04 14:08 | 35.04656 | -106.61311 | 5323 ft | 19 kts | 182° |
| 2026-05-04 14:08 | 35.04556 | -106.61412 | 5323 ft | 21 kts | 264° |
| 2026-05-04 14:08 | 35.04555 | -106.61607 | 5323 ft | 24 kts | 270° |
| 2026-05-04 14:09 | 35.04510 | -106.61726 | 5323 ft | 0 kts | 178° |
| 2026-05-04 14:11 | 35.04506 | -106.61726 | 5323 ft | 4 kts | 178° |
| 2026-05-04 14:11 | 35.04443 | -106.61685 | 5323 ft | 16 kts | 116° |
| 2026-05-04 14:12 | 35.04432 | -106.61472 | 5323 ft | 39 kts | 90° |
| 2026-05-04 14:12 | 35.04428 | -106.60895 | 5323 ft | 98 kts | 90° |
| 2026-05-04 14:12 | 35.04414 | -106.58984 | 5409 ft | 171 kts | 90° |
| 2026-05-04 14:13 | 35.04333 | -106.56010 | 6455 ft | 184 kts | 94° |
| 2026-05-04 14:13 | 35.04287 | -106.54456 | 7067 ft | 185 kts | 87° |
| 2026-05-04 14:13 | 35.04683 | -106.52927 | 7385 ft | 199 kts | 52° |
| 2026-05-04 14:14 | 35.05805 | -106.51854 | 7710 ft | 214 kts | 22° |
| 2026-05-04 14:14 | 35.08846 | -106.52110 | 8416 ft | 245 kts | 323° |
| 2026-05-04 14:14 | 35.10098 | -106.53612 | 8820 ft | 260 kts | 309° |
| 2026-05-04 14:15 | 35.12509 | -106.57114 | 9968 ft | 277 kts | 311° |
| 2026-05-04 14:15 | 35.15214 | -106.60674 | 11159 ft | 292 kts | 313° |
| 2026-05-04 14:16 | 35.18042 | -106.64322 | 12568 ft | 300 kts | 313° |
| 2026-05-04 14:16 | 35.19484 | -106.66190 | 13291 ft | 303 kts | 313° |
| 2026-05-04 14:17 | 35.22409 | -106.69972 | 14726 ft | 310 kts | 314° |
| 2026-05-04 14:17 | 35.23980 | -106.71799 | 15433 ft | 314 kts | 320° |
| 2026-05-04 14:17 | 35.27681 | -106.74951 | 16260 ft | 340 kts | 328° |
| 2026-05-04 14:18 | 35.29778 | -106.76497 | 16593 ft | 356 kts | 329° |
| 2026-05-04 14:18 | 35.34178 | -106.79743 | 17220 ft | 385 kts | 328° |
| 2026-05-04 14:19 | 35.38823 | -106.83230 | 18407 ft | 397 kts | 329° |
| 2026-05-04 14:19 | 35.41266 | -106.84855 | 19037 ft | 402 kts | 334° |
| 2026-05-04 14:19 | 35.43875 | -106.86073 | 19668 ft | 405 kts | 343° |
| 2026-05-04 14:19 | 35.46633 | -106.86855 | 20283 ft | 409 kts | 349° |
| 2026-05-04 14:20 | 35.49468 | -106.87407 | 20888 ft | 413 kts | 352° |
| 2026-05-04 14:20 | 35.52329 | -106.87849 | 21476 ft | 416 kts | 353° |
| 2026-05-04 14:20 | 35.55197 | -106.88249 | 22048 ft | 420 kts | 353° |
| 2026-05-04 14:21 | 35.61063 | -106.89059 | 23151 ft | 427 kts | 353° |
| 2026-05-04 14:21 | 35.64026 | -106.89481 | 23682 ft | 430 kts | 353° |
| 2026-05-04 14:21 | 35.67050 | -106.89924 | 24208 ft | 434 kts | 353° |
| 2026-05-04 14:21 | 35.70029 | -106.90368 | 24711 ft | 437 kts | 353° |
| 2026-05-04 14:22 | 35.73062 | -106.90826 | 25206 ft | 440 kts | 353° |
| 2026-05-04 14:22 | 35.76128 | -106.91295 | 25691 ft | 444 kts | 353° |
| 2026-05-04 14:22 | 35.79223 | -106.91770 | 26167 ft | 447 kts | 353° |
| 2026-05-04 14:22 | 35.82321 | -106.92248 | 26627 ft | 450 kts | 353° |
| 2026-05-04 14:23 | 35.88529 | -106.93195 | 27555 ft | 455 kts | 354° |
| 2026-05-04 14:23 | 35.91725 | -106.93539 | 27987 ft | 458 kts | 356° |
| 2026-05-04 14:23 | 35.94928 | -106.93586 | 28406 ft | 461 kts | 2° |
| 2026-05-04 14:24 | 35.98132 | -106.93298 | 28812 ft | 464 kts | 6° |
| 2026-05-04 14:24 | 36.01362 | -106.92797 | 29227 ft | 466 kts | 8° |
| 2026-05-04 14:24 | 36.04564 | -106.92185 | 29877 ft | 462 kts | 9° |
| 2026-05-04 14:24 | 36.07743 | -106.91527 | 30401 ft | 461 kts | 9° |
| 2026-05-04 14:25 | 36.10956 | -106.90842 | 30922 ft | 460 kts | 9° |
| 2026-05-04 14:25 | 36.17304 | -106.89498 | 31882 ft | 458 kts | 9° |
| 2026-05-04 14:25 | 36.20439 | -106.88845 | 32334 ft | 457 kts | 9° |
| 2026-05-04 14:26 | 36.23584 | -106.88197 | 32774 ft | 456 kts | 9° |
| 2026-05-04 14:26 | 36.26721 | -106.87556 | 33201 ft | 455 kts | 9° |
| 2026-05-04 14:26 | 36.29829 | -106.86927 | 33610 ft | 454 kts | 9° |
| 2026-05-04 14:26 | 36.32949 | -106.86298 | 34010 ft | 454 kts | 9° |
| 2026-05-04 14:27 | 36.36070 | -106.85670 | 34400 ft | 453 kts | 9° |
| 2026-05-04 14:27 | 36.39155 | -106.85050 | 34775 ft | 452 kts | 9° |
| 2026-05-04 14:27 | 36.42268 | -106.84425 | 35138 ft | 451 kts | 9° |
| 2026-05-04 14:27 | 36.45376 | -106.83800 | 35491 ft | 451 kts | 9° |
| 2026-05-04 14:28 | 36.48474 | -106.83178 | 35830 ft | 450 kts | 9° |
| 2026-05-04 14:28 | 36.51572 | -106.82555 | 36171 ft | 449 kts | 9° |
| 2026-05-04 14:28 | 36.54639 | -106.81939 | 36442 ft | 449 kts | 9° |
| 2026-05-04 14:28 | 36.57716 | -106.81319 | 36718 ft | 449 kts | 9° |
| 2026-05-04 14:29 | 36.63935 | -106.80067 | 36997 ft | 452 kts | 9° |
| 2026-05-04 14:29 | 36.70118 | -106.78819 | 36999 ft | 449 kts | 9° |
| 2026-05-04 14:30 | 36.76324 | -106.77564 | 36998 ft | 449 kts | 9° |
| 2026-05-04 14:31 | 36.85519 | -106.75237 | 36998 ft | 449 kts | 13° |
| 2026-05-04 14:32 | 36.97716 | -106.71687 | 36998 ft | 449 kts | 13° |
| 2026-05-04 14:32 | 37.03803 | -106.69943 | 36998 ft | 449 kts | 13° |
| 2026-05-04 14:33 | 37.09882 | -106.68220 | 36998 ft | 449 kts | 12° |
| 2026-05-04 14:33 | 37.16008 | -106.66490 | 36998 ft | 449 kts | 12° |
| 2026-05-04 14:34 | 37.22118 | -106.64766 | 36998 ft | 449 kts | 12° |
| 2026-05-04 14:34 | 37.28188 | -106.63051 | 36998 ft | 449 kts | 12° |
| 2026-05-04 14:35 | 37.34317 | -106.61317 | 36997 ft | 449 kts | 12° |
| 2026-05-04 14:35 | 37.40402 | -106.59592 | 36997 ft | 449 kts | 12° |
| 2026-05-04 14:36 | 37.46548 | -106.57848 | 36997 ft | 449 kts | 12° |
| 2026-05-04 14:36 | 37.52678 | -106.56105 | 36997 ft | 449 kts | 12° |
| 2026-05-04 14:37 | 37.58760 | -106.54373 | 36997 ft | 449 kts | 12° |
| 2026-05-04 14:37 | 37.64877 | -106.52628 | 36998 ft | 449 kts | 12° |
| 2026-05-04 14:38 | 37.70985 | -106.50883 | 36998 ft | 449 kts | 12° |
| 2026-05-04 14:38 | 37.77107 | -106.49132 | 36998 ft | 449 kts | 12° |
| 2026-05-04 14:39 | 37.83179 | -106.47392 | 36998 ft | 449 kts | 12° |
| 2026-05-04 14:39 | 37.89308 | -106.45634 | 36998 ft | 449 kts | 12° |
| 2026-05-04 14:40 | 37.98486 | -106.42995 | 36998 ft | 449 kts | 12° |
| 2026-05-04 14:40 | 38.04559 | -106.41245 | 36997 ft | 449 kts | 12° |
| 2026-05-04 14:41 | 38.10650 | -106.39486 | 36998 ft | 449 kts | 12° |
| 2026-05-04 14:42 | 38.22868 | -106.35952 | 36998 ft | 449 kts | 12° |
| 2026-05-04 14:42 | 38.29014 | -106.34173 | 36997 ft | 449 kts | 13° |
| 2026-05-04 14:43 | 38.35102 | -106.32407 | 36997 ft | 449 kts | 13° |
| 2026-05-04 14:43 | 38.41198 | -106.30637 | 36997 ft | 449 kts | 13° |
| 2026-05-04 14:44 | 38.47297 | -106.28862 | 36997 ft | 449 kts | 13° |
| 2026-05-04 14:44 | 38.53212 | -106.27138 | 36997 ft | 449 kts | 13° |
| 2026-05-04 14:45 | 38.59232 | -106.25088 | 36996 ft | 449 kts | 20° |
| 2026-05-04 14:45 | 38.62143 | -106.23528 | 36824 ft | 447 kts | 27° |
| 2026-05-04 14:45 | 38.64829 | -106.21551 | 36434 ft | 442 kts | 34° |
| 2026-05-04 14:46 | 38.67295 | -106.19260 | 35948 ft | 438 kts | 39° |
| 2026-05-04 14:46 | 38.69609 | -106.16730 | 35327 ft | 439 kts | 43° |
| 2026-05-04 14:46 | 38.71737 | -106.13971 | 34659 ft | 440 kts | 47° |
| 2026-05-04 14:46 | 38.73761 | -106.11044 | 33937 ft | 442 kts | 50° |
| 2026-05-04 14:47 | 38.75727 | -106.08043 | 33180 ft | 444 kts | 50° |
| 2026-05-04 14:47 | 38.77701 | -106.04961 | 32366 ft | 448 kts | 51° |
| 2026-05-04 14:47 | 38.79673 | -106.01863 | 31518 ft | 452 kts | 51° |
| 2026-05-04 14:47 | 38.81653 | -105.98756 | 30825 ft | 451 kts | 51° |
| 2026-05-04 14:48 | 38.83630 | -105.95661 | 30294 ft | 446 kts | 51° |
| 2026-05-04 14:48 | 38.85568 | -105.92638 | 29742 ft | 443 kts | 50° |
| 2026-05-04 14:48 | 38.87524 | -105.89595 | 29174 ft | 440 kts | 50° |
| 2026-05-04 14:48 | 38.89473 | -105.86568 | 28606 ft | 436 kts | 50° |
| 2026-05-04 14:49 | 38.91371 | -105.83612 | 28045 ft | 433 kts | 50° |
| 2026-05-04 14:49 | 38.93276 | -105.80637 | 27483 ft | 430 kts | 50° |
| 2026-05-04 14:49 | 38.95169 | -105.77676 | 26923 ft | 427 kts | 50° |
| 2026-05-04 14:49 | 38.97065 | -105.74709 | 26353 ft | 424 kts | 50° |
| 2026-05-04 14:50 | 38.98930 | -105.71790 | 25792 ft | 421 kts | 50° |
| 2026-05-04 14:50 | 39.00769 | -105.68909 | 25241 ft | 417 kts | 50° |
| 2026-05-04 14:50 | 39.02593 | -105.66055 | 24995 ft | 406 kts | 50° |
| 2026-05-04 14:50 | 39.04378 | -105.63271 | 24869 ft | 396 kts | 50° |
| 2026-05-04 14:51 | 39.06137 | -105.60535 | 24375 ft | 393 kts | 50° |
| 2026-05-04 14:51 | 39.07858 | -105.57861 | 23862 ft | 391 kts | 50° |
| 2026-05-04 14:51 | 39.09584 | -105.55175 | 23341 ft | 389 kts | 50° |
| 2026-05-04 14:51 | 39.11312 | -105.52485 | 22822 ft | 386 kts | 50° |
| 2026-05-04 14:52 | 39.13001 | -105.49851 | 22300 ft | 384 kts | 50° |
| 2026-05-04 14:52 | 39.14681 | -105.47231 | 21998 ft | 377 kts | 50° |
| 2026-05-04 14:52 | 39.16340 | -105.44629 | 21836 ft | 373 kts | 50° |
| 2026-05-04 14:52 | 39.17963 | -105.42059 | 21588 ft | 371 kts | 51° |
| 2026-05-04 14:53 | 39.19585 | -105.39478 | 21286 ft | 365 kts | 51° |
| 2026-05-04 14:53 | 39.21179 | -105.36938 | 20853 ft | 361 kts | 51° |
| 2026-05-04 14:53 | 39.22757 | -105.34422 | 20365 ft | 359 kts | 51° |
| 2026-05-04 14:53 | 39.24312 | -105.31941 | 19882 ft | 357 kts | 51° |
| 2026-05-04 14:54 | 39.25868 | -105.29458 | 19389 ft | 355 kts | 51° |
| 2026-05-04 14:54 | 39.27423 | -105.27038 | 19060 ft | 348 kts | 49° |
| 2026-05-04 14:54 | 39.29057 | -105.24821 | 18997 ft | 334 kts | 43° |
| 2026-05-04 14:54 | 39.30817 | -105.22928 | 19001 ft | 327 kts | 37° |
| 2026-05-04 14:55 | 39.32682 | -105.21169 | 19000 ft | 331 kts | 35° |
| 2026-05-04 14:55 | 39.34577 | -105.19457 | 18998 ft | 331 kts | 35° |
| 2026-05-04 14:55 | 39.36457 | -105.17773 | 18864 ft | 333 kts | 35° |
| 2026-05-04 14:55 | 39.38346 | -105.16067 | 18611 ft | 331 kts | 35° |
| 2026-05-04 14:56 | 39.40221 | -105.14349 | 18354 ft | 325 kts | 36° |
| 2026-05-04 14:56 | 39.42038 | -105.12669 | 17993 ft | 322 kts | 36° |
| 2026-05-04 14:56 | 39.43863 | -105.10971 | 17566 ft | 321 kts | 36° |
| 2026-05-04 14:56 | 39.45654 | -105.09256 | 17207 ft | 317 kts | 39° |
| 2026-05-04 14:57 | 39.47298 | -105.07390 | 17086 ft | 315 kts | 44° |
| 2026-05-04 14:57 | 39.48874 | -105.05342 | 17079 ft | 322 kts | 46° |
| 2026-05-04 14:57 | 39.50405 | -105.03244 | 17080 ft | 322 kts | 47° |
| 2026-05-04 14:57 | 39.51925 | -105.01131 | 17081 ft | 321 kts | 47° |
| 2026-05-04 14:58 | 39.53457 | -104.99011 | 17081 ft | 321 kts | 47° |
| 2026-05-04 14:58 | 39.54993 | -104.96898 | 17081 ft | 321 kts | 46° |
| 2026-05-04 14:58 | 39.56542 | -104.94778 | 17081 ft | 321 kts | 46° |
| 2026-05-04 14:58 | 39.58086 | -104.92671 | 16985 ft | 320 kts | 46° |
| 2026-05-04 14:59 | 39.59616 | -104.90583 | 16628 ft | 317 kts | 46° |
| 2026-05-04 14:59 | 39.61118 | -104.88534 | 16215 ft | 316 kts | 46° |
| 2026-05-04 14:59 | 39.64129 | -104.84418 | 15366 ft | 313 kts | 46° |
| 2026-05-04 15:00 | 39.65632 | -104.82362 | 14945 ft | 312 kts | 46° |
| 2026-05-04 15:00 | 39.67123 | -104.80321 | 14525 ft | 311 kts | 46° |
| 2026-05-04 15:00 | 39.68624 | -104.78263 | 14122 ft | 309 kts | 46° |
| 2026-05-04 15:01 | 39.71535 | -104.74357 | 13543 ft | 298 kts | 45° |
| 2026-05-04 15:01 | 39.72992 | -104.72470 | 13148 ft | 297 kts | 45° |
| 2026-05-04 15:01 | 39.74458 | -104.70576 | 12757 ft | 296 kts | 45° |
| 2026-05-04 15:01 | 39.75907 | -104.68697 | 12372 ft | 295 kts | 45° |
| 2026-05-04 15:02 | 39.77285 | -104.66719 | 11980 ft | 293 kts | 53° |
| 2026-05-04 15:02 | 39.78188 | -104.64391 | 11604 ft | 291 kts | 77° |
| 2026-05-04 15:02 | 39.78367 | -104.61813 | 11352 ft | 283 kts | 90° |
| 2026-05-04 15:02 | 39.78329 | -104.59282 | 11245 ft | 272 kts | 91° |
| 2026-05-04 15:03 | 39.78284 | -104.56866 | 11159 ft | 260 kts | 90° |
| 2026-05-04 15:03 | 39.78257 | -104.54572 | 11076 ft | 250 kts | 91° |
| 2026-05-04 15:03 | 39.78223 | -104.52328 | 11087 ft | 243 kts | 91° |
| 2026-05-04 15:03 | 39.78188 | -104.50201 | 11078 ft | 228 kts | 91° |
| 2026-05-04 15:04 | 39.78155 | -104.48172 | 10936 ft | 224 kts | 91° |
| 2026-05-04 15:04 | 39.78122 | -104.46154 | 10760 ft | 222 kts | 91° |
| 2026-05-04 15:04 | 39.78090 | -104.44152 | 10617 ft | 220 kts | 91° |
| 2026-05-04 15:04 | 39.78058 | -104.42170 | 10494 ft | 221 kts | 91° |
| 2026-05-04 15:05 | 39.78026 | -104.40170 | 10368 ft | 221 kts | 91° |
| 2026-05-04 15:05 | 39.77995 | -104.38171 | 10242 ft | 220 kts | 91° |
| 2026-05-04 15:05 | 39.77964 | -104.36192 | 10118 ft | 220 kts | 91° |
| 2026-05-04 15:05 | 39.77939 | -104.34217 | 9992 ft | 219 kts | 88° |
| 2026-05-04 15:06 | 39.78309 | -104.32318 | 9862 ft | 219 kts | 58° |
| 2026-05-04 15:06 | 39.79410 | -104.30975 | 9738 ft | 219 kts | 25° |
| 2026-05-04 15:06 | 39.80862 | -104.30386 | 9520 ft | 220 kts | 5° |
| 2026-05-04 15:07 | 39.83524 | -104.31868 | 9076 ft | 208 kts | 320° |
| 2026-05-04 15:07 | 39.84600 | -104.33032 | 9082 ft | 196 kts | 321° |
| 2026-05-04 15:07 | 39.85665 | -104.34100 | 9080 ft | 193 kts | 323° |
| 2026-05-04 15:07 | 39.86731 | -104.35168 | 9080 ft | 194 kts | 317° |
| 2026-05-04 15:08 | 39.87595 | -104.36528 | 9082 ft | 194 kts | 302° |
| 2026-05-04 15:08 | 39.88201 | -104.38083 | 9082 ft | 194 kts | 290° |
| 2026-05-04 15:08 | 39.88541 | -104.39789 | 9081 ft | 194 kts | 278° |
| 2026-05-04 15:08 | 39.88517 | -104.41517 | 8992 ft | 196 kts | 253° |
| 2026-05-04 15:09 | 39.87908 | -104.43095 | 8769 ft | 194 kts | 232° |
| 2026-05-04 15:09 | 39.86925 | -104.44257 | 8475 ft | 189 kts | 211° |
| 2026-05-04 15:09 | 39.85890 | -104.45309 | 8205 ft | 190 kts | 234° |
| 2026-05-04 15:10 | 39.85610 | -104.48521 | 8005 ft | 189 kts | 292° |
| 2026-05-04 15:10 | 39.86138 | -104.50071 | 7722 ft | 189 kts | 296° |
| 2026-05-04 15:10 | 39.87182 | -104.53047 | 7177 ft | 179 kts | 290° |
| 2026-05-04 15:11 | 39.87524 | -104.54636 | 6734 ft | 182 kts | 280° |
| 2026-05-04 15:11 | 39.87680 | -104.56257 | 6399 ft | 178 kts | 275° |
| 2026-05-04 15:11 | 39.87696 | -104.57825 | 6179 ft | 165 kts | 269° |
| 2026-05-04 15:11 | 39.87674 | -104.59244 | 5927 ft | 151 kts | 270° |
| 2026-05-04 15:12 | 39.87698 | -104.60558 | 5656 ft | 144 kts | 272° |
| 2026-05-04 15:12 | 39.87720 | -104.61852 | 5399 ft | 142 kts | 271° |
| 2026-05-04 15:12 | 39.87728 | -104.63095 | 5321 ft | 119 kts | 271° |
| 2026-05-04 15:12 | 39.87738 | -104.63974 | 5331 ft | 76 kts | 272° |
| 2026-05-04 15:13 | 39.87717 | -104.64428 | 5337 ft | 28 kts | 255° |
| 2026-05-04 15:13 | 39.87645 | -104.64631 | 5339 ft | 22 kts | 241° |
| 2026-05-04 15:13 | 39.87588 | -104.64803 | 5341 ft | 19 kts | 260° |
| 2026-05-04 15:13 | 39.87583 | -104.64967 | 5344 ft | 17 kts | 275° |
| 2026-05-04 15:14 | 39.87589 | -104.65150 | 5347 ft | 21 kts | 270° |
| 2026-05-04 15:14 | 39.87585 | -104.65354 | 5351 ft | 23 kts | 266° |
| 2026-05-04 15:14 | 39.87585 | -104.65564 | 5354 ft | 22 kts | 271° |
| 2026-05-04 15:14 | 39.87588 | -104.65784 | 5356 ft | 25 kts | 271° |
| 2026-05-04 15:15 | 39.87591 | -104.66017 | 5356 ft | 25 kts | 270° |
| 2026-05-04 15:15 | 39.87582 | -104.66181 | 5356 ft | 15 kts | 240° |
| 2026-05-04 15:15 | 39.87474 | -104.66215 | 5357 ft | 17 kts | 180° |
| 2026-05-04 15:16 | 39.87227 | -104.66217 | 5362 ft | 18 kts | 180° |
| 2026-05-04 15:16 | 39.87095 | -104.66218 | 5364 ft | 19 kts | 180° |
| 2026-05-04 15:16 | 39.86825 | -104.66222 | 5374 ft | 18 kts | 180° |
| 2026-05-04 15:17 | 39.86697 | -104.66224 | 5379 ft | 17 kts | 180° |
| 2026-05-04 15:17 | 39.86501 | -104.66296 | 5382 ft | 16 kts | 265° |
| 2026-05-04 15:17 | 39.86501 | -104.66470 | 5376 ft | 19 kts | 257° |
| 2026-05-04 15:18 | 39.86410 | -104.66573 | 5375 ft | 19 kts | 258° |
| 2026-05-04 15:18 | 39.86409 | -104.66756 | 5376 ft | 21 kts | 269° |
| 2026-05-04 15:18 | 39.86411 | -104.66946 | 5376 ft | 20 kts | 271° |
| 2026-05-04 15:19 | 39.86399 | -104.67249 | 5376 ft | 11 kts | 219° |
| 2026-05-04 15:19 | 39.86365 | -104.67259 | 5376 ft | 3 kts | 180° |
| 2026-05-04 15:19 | 39.86357 | -104.67259 | 5376 ft | 0 kts | 180° |